Time;durP1;ratioP1;P1;durP2;ratioP2;P2;SDS_P1;SDS_P2;PMS_P1;PMS_P2;Temp;Humidity;BMP_temperature;BMP_pressure;BME280_temperature;BME280_humidity;BME280_pressure;Samples;Min_cycle;Max_cycle;Signal;HPM_P1;HPM_P2
2022/03/26 00:00:18;;;;;;;43.40;30.43;;;5.10;99.90;;;;;;4956692;28;20509;-54
2022/03/26 00:02:45;;;;;;;38.40;29.17;;;5.10;99.90;;;;;;4954864;29;20549;-53
2022/03/26 00:05:12;;;;;;;44.77;29.67;;;5.10;99.90;;;;;;4956431;28;20620;-53
2022/03/26 00:07:38;;;;;;;45.00;30.50;;;5.00;99.90;;;;;;4949668;28;20554;-54
2022/03/26 00:10:06;;;;;;;45.50;30.20;;;5.00;99.90;;;;;;4947464;28;20608;-53
2022/03/26 00:12:32;;;;;;;43.10;30.00;;;5.00;99.90;;;;;;4957358;28;20454;-52
2022/03/26 00:14:59;;;;;;;45.10;30.23;;;4.90;99.90;;;;;;4956390;28;20518;-53
2022/03/26 00:17:27;;;;;;;38.23;27.60;;;4.90;99.90;;;;;;4955278;29;20478;-53
2022/03/26 00:19:54;;;;;;;43.13;30.60;;;4.90;99.90;;;;;;4955002;28;20549;-53
2022/03/26 00:22:21;;;;;;;39.80;29.20;;;4.90;99.90;;;;;;4956448;28;20494;-53
2022/03/26 00:24:47;;;;;;;36.47;29.37;;;4.90;99.90;;;;;;4955381;28;21076;-58
2022/03/26 00:27:14;;;;;;;43.10;29.37;;;4.90;99.90;;;;;;4954255;29;20549;-55
2022/03/26 00:29:41;;;;;;;38.13;28.03;;;4.80;99.90;;;;;;4955931;29;21075;-52
2022/03/26 00:32:08;;;;;;;39.67;28.00;;;4.80;99.90;;;;;;4956028;28;20545;-53
2022/03/26 00:34:36;;;;;;;42.90;27.50;;;4.80;99.90;;;;;;4950018;28;20585;-53
2022/03/26 00:37:03;;;;;;;44.27;27.07;;;4.80;99.90;;;;;;4954406;28;20995;-53
2022/03/26 00:39:30;;;;;;;38.13;26.83;;;4.70;99.90;;;;;;4953722;29;20569;-54
2022/03/26 00:41:57;;;;;;;46.33;27.50;;;4.70;99.90;;;;;;4953740;28;20589;-54
2022/03/26 00:44:23;;;;;;;41.03;27.27;;;4.70;99.90;;;;;;4955259;28;20486;-52
2022/03/26 00:46:50;;;;;;;44.67;27.10;;;4.70;99.90;;;;;;4953736;28;20549;-54
2022/03/26 00:49:18;;;;;;;34.13;26.83;;;4.60;99.90;;;;;;4953477;28;20550;-52
2022/03/26 00:51:46;;;;;;;43.40;29.53;;;4.60;99.90;;;;;;4953647;29;20546;-53
2022/03/26 00:54:13;;;;;;;35.93;27.93;;;4.60;99.90;;;;;;4952907;29;20565;-53
2022/03/26 00:56:41;;;;;;;42.93;26.70;;;4.50;99.90;;;;;;4954658;28;20522;-53
2022/03/26 00:59:08;;;;;;;38.97;27.50;;;4.50;99.90;;;;;;4954164;28;20610;-53
2022/03/26 01:01:36;;;;;;;40.90;26.07;;;4.40;99.90;;;;;;4953272;28;20513;-54
2022/03/26 01:04:02;;;;;;;35.00;26.43;;;4.30;99.90;;;;;;4954376;28;20490;-53
2022/03/26 01:06:29;;;;;;;44.53;26.63;;;4.30;99.90;;;;;;4947850;28;20538;-53
2022/03/26 01:08:57;;;;;;;44.73;28.53;;;4.30;99.90;;;;;;4961481;29;20482;-53
2022/03/26 01:11:24;;;;;;;34.80;25.50;;;4.30;99.90;;;;;;4950388;28;21055;-55
2022/03/26 01:13:53;;;;;;;40.97;26.27;;;4.30;99.90;;;;;;4954651;28;20561;-52
2022/03/26 01:16:20;;;;;;;37.10;26.63;;;4.20;99.90;;;;;;4954832;28;20933;-53
2022/03/26 01:18:47;;;;;;;43.27;27.27;;;4.20;99.90;;;;;;4946461;28;20450;-54
2022/03/26 01:21:13;;;;;;;38.13;24.40;;;4.20;99.90;;;;;;4953643;28;20437;-54
2022/03/26 01:23:40;;;;;;;38.60;26.87;;;4.20;99.90;;;;;;4954953;28;20574;-53
2022/03/26 01:26:08;;;;;;;47.47;29.30;;;4.20;99.90;;;;;;4951170;28;20892;-53
2022/03/26 01:28:34;;;;;;;39.97;26.67;;;4.20;99.90;;;;;;4952580;29;20482;-54
2022/03/26 01:31:02;;;;;;;39.47;27.03;;;4.20;99.90;;;;;;4954614;29;20902;-53
2022/03/26 01:33:28;;;;;;;42.20;25.57;;;4.20;99.90;;;;;;4961210;23;20933;-52
2022/03/26 01:35:55;;;;;;;35.93;25.83;;;4.10;99.90;;;;;;4971350;28;20571;-53
2022/03/26 01:38:21;;;;;;;46.80;26.30;;;4.10;99.90;;;;;;4974364;28;20516;-52
2022/03/26 01:40:48;;;;;;;44.93;26.37;;;4.10;99.90;;;;;;4962669;28;20584;-52
2022/03/26 01:43:16;;;;;;;40.33;26.30;;;4.10;99.90;;;;;;4974526;28;20597;-52
2022/03/26 01:45:43;;;;;;;36.17;25.10;;;4.10;99.90;;;;;;4955900;28;20573;-52
2022/03/26 01:48:10;;;;;;;33.57;26.50;;;4.00;99.90;;;;;;4956923;28;20470;-52
2022/03/26 01:50:38;;;;;;;35.07;24.00;;;4.00;99.90;;;;;;4961851;28;20505;-52
2022/03/26 01:53:05;;;;;;;36.37;24.97;;;4.00;99.90;;;;;;4957679;28;20589;-52
2022/03/26 01:55:32;;;;;;;33.53;25.00;;;4.00;99.90;;;;;;4957277;28;20578;-52
2022/03/26 01:57:58;;;;;;;33.43;24.10;;;4.00;99.90;;;;;;4952552;28;20569;-52
2022/03/26 02:00:26;;;;;;;30.40;24.23;;;4.00;99.90;;;;;;4952524;28;20601;-52
2022/03/26 02:02:53;;;;;;;36.13;25.37;;;3.90;99.90;;;;;;4953356;28;20562;-52
2022/03/26 02:05:20;;;;;;;37.70;25.23;;;3.90;99.90;;;;;;4949219;28;21075;-52
2022/03/26 02:07:48;;;;;;;35.93;24.77;;;3.90;99.90;;;;;;4950675;28;20468;-52
2022/03/26 02:10:17;;;;;;;36.50;26.40;;;3.90;99.90;;;;;;4956764;28;22270;-52
2022/03/26 02:12:45;;;;;;;50.33;27.13;;;4.00;99.90;;;;;;4950096;28;20561;-52
2022/03/26 02:15:12;;;;;;;47.00;24.60;;;4.00;99.90;;;;;;4951847;28;21023;-52
2022/03/26 02:17:41;;;;;;;41.40;24.53;;;4.00;99.90;;;;;;4956901;28;20995;-52
2022/03/26 02:20:11;;;;;;;36.63;26.63;;;4.00;99.90;;;;;;4952519;28;20986;-53
2022/03/26 02:22:39;;;;;;;36.30;24.30;;;4.00;99.90;;;;;;4954962;28;20822;-53
2022/03/26 02:25:07;;;;;;;30.20;23.43;;;3.90;99.90;;;;;;4953465;28;20564;-52
2022/03/26 02:27:34;;;;;;;32.53;24.47;;;3.90;99.90;;;;;;4967623;28;20450;-52
2022/03/26 02:30:02;;;;;;;41.30;25.17;;;3.80;99.90;;;;;;4954844;28;20497;-53
2022/03/26 02:32:29;;;;;;;38.73;24.87;;;3.80;99.90;;;;;;4952993;28;20501;-53
2022/03/26 02:34:56;;;;;;;34.60;23.93;;;3.80;99.90;;;;;;4949541;28;20598;-53
2022/03/26 02:37:24;;;;;;;40.50;25.43;;;3.80;99.90;;;;;;4957470;28;20488;-53
2022/03/26 02:39:51;;;;;;;45.70;27.97;;;3.80;99.90;;;;;;4957238;28;20904;-53
2022/03/26 02:42:18;;;;;;;41.43;25.13;;;3.80;99.90;;;;;;4950643;28;21011;-53
2022/03/26 02:44:44;;;;;;;48.53;26.50;;;3.80;99.90;;;;;;4947758;28;20582;-53
2022/03/26 02:47:11;;;;;;;47.07;26.60;;;3.80;99.90;;;;;;4956061;28;20549;-53
2022/03/26 02:49:38;;;;;;;35.13;25.07;;;3.80;99.90;;;;;;4949460;28;20557;-53
2022/03/26 02:52:05;;;;;;;36.33;25.13;;;3.80;96.00;;;;;;4948544;28;21014;-53
2022/03/26 02:54:35;;;;;;;38.03;25.10;;;3.80;85.60;;;;;;4957407;28;20580;-53
2022/03/26 02:57:02;;;;;;;39.77;26.80;;;3.80;97.50;;;;;;4952865;28;20565;-53
2022/03/26 02:59:29;;;;;;;32.23;25.23;;;3.80;95.70;;;;;;4945204;28;20463;-53
2022/03/26 03:01:55;;;;;;;38.67;25.17;;;3.80;99.60;;;;;;4946651;28;20502;-53
2022/03/26 03:04:22;;;;;;;30.53;24.10;;;3.70;99.90;;;;;;4949239;28;20513;-53
2022/03/26 03:06:48;;;;;;;37.53;27.43;;;3.70;99.90;;;;;;4951437;28;20493;-52
2022/03/26 03:09:15;;;;;;;35.97;26.63;;;3.70;99.90;;;;;;4950110;28;20498;-52
2022/03/26 03:11:43;;;;;;;38.50;24.70;;;3.70;99.90;;;;;;4953381;28;20495;-52
2022/03/26 03:14:10;;;;;;;34.20;23.87;;;3.70;99.90;;;;;;4952579;28;20516;-52
2022/03/26 03:16:37;;;;;;;32.37;25.50;;;3.60;99.90;;;;;;4949439;28;20489;-52
2022/03/26 03:19:04;;;;;;;37.40;24.67;;;3.60;99.90;;;;;;4950432;28;20948;-52
2022/03/26 03:21:31;;;;;;;39.93;25.77;;;3.60;99.90;;;;;;4949315;28;20500;-53
2022/03/26 03:23:57;;;;;;;37.30;25.30;;;3.50;93.80;;;;;;4949026;28;20506;-53
2022/03/26 03:26:24;;;;;;;41.30;25.90;;;3.50;88.20;;;;;;4947402;28;20461;-53
2022/03/26 03:28:52;;;;;;;37.20;25.77;;;3.50;84.60;;;;;;4952540;28;20465;-52
2022/03/26 03:31:19;;;;;;;34.83;23.70;;;3.50;80.40;;;;;;4951533;28;20490;-53
2022/03/26 03:33:46;;;;;;;40.63;26.43;;;3.50;83.20;;;;;;4958693;28;21019;-53
2022/03/26 03:36:13;;;;;;;42.63;27.47;;;3.50;83.30;;;;;;4942267;29;20481;-53
2022/03/26 03:38:39;;;;;;;39.33;25.50;;;3.50;83.90;;;;;;4961125;28;20525;-53
2022/03/26 03:41:06;;;;;;;33.77;24.23;;;3.50;92.50;;;;;;4962100;28;20524;-50
2022/03/26 03:43:33;;;;;;;39.43;26.33;;;3.50;87.20;;;;;;4949930;28;20501;-50
2022/03/26 03:46:01;;;;;;;43.23;27.30;;;3.40;76.10;;;;;;4963710;28;20588;-50
2022/03/26 03:48:28;;;;;;;32.40;24.70;;;3.40;75.40;;;;;;4958607;28;20494;-53
2022/03/26 03:50:54;;;;;;;37.93;26.10;;;3.40;87.70;;;;;;4959381;28;20449;-53
2022/03/26 03:53:21;;;;;;;42.40;25.70;;;3.40;87.20;;;;;;4960779;28;21021;-49
2022/03/26 03:55:47;;;;;;;36.97;25.87;;;3.40;86.60;;;;;;4953927;28;20866;-50
2022/03/26 03:58:14;;;;;;;42.80;25.77;;;3.40;86.40;;;;;;4957750;28;20588;-50
2022/03/26 04:00:41;;;;;;;40.60;26.50;;;3.30;90.00;;;;;;4955952;28;20544;-50
2022/03/26 04:03:08;;;;;;;40.20;25.93;;;3.30;91.60;;;;;;4960283;28;20497;-53
2022/03/26 04:05:35;;;;;;;36.93;25.60;;;3.30;92.40;;;;;;4949888;28;20515;-52
2022/03/26 04:08:02;;;;;;;44.57;28.33;;;3.20;86.80;;;;;;4961436;28;20473;-52
2022/03/26 04:10:28;;;;;;;36.00;25.57;;;3.20;81.50;;;;;;4955930;28;20498;-53
2022/03/26 04:12:55;;;;;;;38.17;26.17;;;3.30;69.30;;;;;;4959882;28;20524;-54
2022/03/26 04:15:21;;;;;;;39.37;24.73;;;3.30;68.60;;;;;;4950799;28;20513;-50
2022/03/26 04:17:51;;;;;;;40.43;26.77;;;3.20;84.20;;;;;;4954317;28;20513;-55
2022/03/26 04:20:19;;;;;;;38.10;25.87;;;3.20;89.30;;;;;;4956929;28;20957;-53
2022/03/26 04:22:46;;;;;;;35.70;24.60;;;3.10;94.30;;;;;;4964657;28;20869;-53
2022/03/26 04:25:12;;;;;;;42.70;25.77;;;3.10;91.20;;;;;;4946231;28;20516;-53
2022/03/26 04:27:43;;;;;;;41.03;26.83;;;3.10;80.60;;;;;;4955246;28;21041;-53
2022/03/26 04:30:11;;;;;;;44.90;28.53;;;3.10;70.50;;;;;;4957934;28;20462;-52
2022/03/26 04:32:37;;;;;;;37.50;26.60;;;3.00;69.70;;;;;;4959142;28;20565;-52
2022/03/26 04:35:05;;;;;;;39.67;25.90;;;3.00;68.60;;;;;;4946314;28;20573;-53
2022/03/26 04:37:34;;;;;;;38.17;26.20;;;3.10;66.40;;;;;;4955275;28;20489;-52
2022/03/26 04:40:01;;;;;;;37.57;25.07;;;3.00;67.50;;;;;;4954991;28;20473;-53
2022/03/26 04:42:27;;;;;;;40.67;25.90;;;3.00;71.90;;;;;;4952962;28;20467;-52
2022/03/26 04:44:54;;;;;;;36.00;26.07;;;3.00;66.50;;;;;;4951500;28;20602;-54
2022/03/26 04:47:20;;;;;;;54.83;28.37;;;3.00;65.90;;;;;;4954834;28;20493;-54
2022/03/26 04:49:47;;;;;;;37.83;25.50;;;3.10;57.70;;;;;;4955003;28;20494;-54
2022/03/26 04:52:14;;;;;;;33.70;25.90;;;3.00;54.90;;;;;;4955649;28;20482;-52
2022/03/26 04:54:42;;;;;;;39.27;26.40;;;3.00;59.80;;;;;;4955892;28;20916;-55
2022/03/26 04:57:09;;;;;;;41.87;26.80;;;3.00;62.80;;;;;;4961638;28;20926;-54
2022/03/26 04:59:36;;;;;;;45.17;27.40;;;3.00;61.00;;;;;;4960067;28;20470;-52
2022/03/26 05:02:03;;;;;;;45.03;28.30;;;3.00;57.10;;;;;;4961385;28;20461;-52
2022/03/26 05:04:30;;;;;;;43.97;25.80;;;3.00;49.90;;;;;;4967214;28;20517;-53
2022/03/26 05:06:57;;;;;;;40.43;25.17;;;3.00;50.80;;;;;;4953666;28;20521;-52
2022/03/26 05:09:23;;;;;;;51.07;28.30;;;3.10;52.90;;;;;;4953807;28;20533;-52
2022/03/26 05:11:51;;;;;;;42.70;27.40;;;3.10;52.00;;;;;;4963951;28;20473;-54
2022/03/26 05:14:18;;;;;;;35.57;25.60;;;3.10;49.70;;;;;;4962091;28;20532;-52
2022/03/26 05:16:45;;;;;;;42.93;27.07;;;3.10;60.00;;;;;;4962780;28;20505;-52
2022/03/26 05:19:11;;;;;;;40.90;26.30;;;3.00;75.40;;;;;;4960588;28;20462;-55
2022/03/26 05:21:38;;;;;;;32.55;24.75;;;3.00;70.80;;;;;;4962393;28;20510;-51
2022/03/26 05:24:06;;;;;;;35.70;25.40;;;3.10;66.90;;;;;;4953077;28;20230;-53
2022/03/26 05:26:33;;;;;;;38.63;23.80;;;3.00;70.60;;;;;;4952694;28;20493;-53
2022/03/26 05:29:01;;;;;;;38.53;25.87;;;3.10;72.00;;;;;;4957837;28;20544;-53
2022/03/26 05:31:28;;;;;;;41.67;26.50;;;3.10;65.80;;;;;;4956819;28;20995;-52
2022/03/26 05:33:55;;;;;;;38.87;27.20;;;3.20;65.10;;;;;;4956897;28;20493;-53
2022/03/26 05:36:21;;;;;;;36.83;27.00;;;3.20;64.40;;;;;;4950706;28;20846;-53
2022/03/26 05:38:48;;;;;;;35.87;25.73;;;3.30;57.40;;;;;;4957862;28;21050;-51
2022/03/26 05:41:15;;;;;;;39.30;27.60;;;3.30;60.60;;;;;;4959247;28;20540;-53
2022/03/26 05:43:41;;;;;;;35.87;25.83;;;3.40;59.70;;;;;;4958586;28;20493;-52
2022/03/26 05:46:10;;;;;;;35.30;25.97;;;3.50;62.30;;;;;;4951703;28;20498;-52
2022/03/26 05:48:37;;;;;;;49.57;30.00;;;3.60;66.40;;;;;;4961182;28;21098;-52
2022/03/26 05:51:04;;;;;;;35.63;26.00;;;3.70;67.50;;;;;;4955132;28;20512;-51
2022/03/26 05:53:30;;;;;;;41.73;28.60;;;3.90;68.80;;;;;;4955746;28;20976;-53
2022/03/26 05:55:57;;;;;;;45.43;31.23;;;4.10;71.40;;;;;;4951931;28;20530;-52
2022/03/26 05:58:23;;;;;;;47.97;30.50;;;4.50;59.70;;;;;;4952582;28;22498;-52
2022/03/26 06:00:50;;;;;;;44.90;30.03;;;4.70;63.10;;;;;;4956640;28;20497;-52
2022/03/26 06:03:18;;;;;;;44.77;31.73;;;4.90;85.80;;;;;;4962135;28;20474;-51
2022/03/26 06:05:45;;;;;;;50.13;32.97;;;5.30;84.00;;;;;;4959417;28;21080;-52
2022/03/26 06:08:12;;;;;;;50.67;31.40;;;5.60;97.90;;;;;;4959071;28;20470;-52
2022/03/26 06:10:38;;;;;;;46.17;34.43;;;5.70;99.90;;;;;;4956636;28;20486;-52
2022/03/26 06:13:05;;;;;;;61.17;36.20;;;5.90;99.90;;;;;;4953123;28;20501;-53
2022/03/26 06:15:34;;;;;;;48.87;34.10;;;6.00;99.90;;;;;;4953973;28;20966;-53
2022/03/26 06:18:00;;;;;;;51.13;34.73;;;6.10;99.90;;;;;;4958657;28;20496;-52
2022/03/26 06:20:28;;;;;;;50.37;34.77;;;6.30;99.90;;;;;;4964368;28;20453;-53
2022/03/26 06:22:55;;;;;;;50.73;35.33;;;6.50;99.90;;;;;;4961672;28;20497;-51
2022/03/26 06:25:21;;;;;;;66.87;38.07;;;6.50;99.90;;;;;;4953338;28;20849;-52
2022/03/26 06:27:48;;;;;;;59.33;35.60;;;6.60;99.90;;;;;;4947948;28;20470;-52
2022/03/26 06:30:15;;;;;;;57.37;37.63;;;6.70;99.90;;;;;;4954411;28;20489;-52
2022/03/26 06:32:41;;;;;;;60.63;38.23;;;6.80;99.90;;;;;;4948900;28;20462;-52
2022/03/26 06:35:09;;;;;;;62.37;38.20;;;6.90;99.90;;;;;;4952010;28;20572;-52
2022/03/26 06:37:37;;;;;;;56.80;37.10;;;7.00;99.90;;;;;;4943465;28;20521;-52
2022/03/26 06:40:04;;;;;;;56.90;38.57;;;7.20;99.90;;;;;;4954761;28;20493;-52
2022/03/26 06:42:31;;;;;;;56.63;37.60;;;7.30;99.90;;;;;;4958662;28;20932;-52
2022/03/26 06:44:59;;;;;;;63.50;40.57;;;7.40;99.90;;;;;;4949977;28;20572;-52
2022/03/26 06:47:26;;;;;;;52.73;36.70;;;7.50;99.90;;;;;;4950744;28;20972;-53
2022/03/26 06:49:53;;;;;;;56.87;38.97;;;7.60;99.90;;;;;;4954980;28;20557;-52
2022/03/26 06:52:21;;;;;;;56.00;38.13;;;7.90;99.90;;;;;;4952351;28;20919;-52
2022/03/26 06:54:49;;;;;;;67.33;39.20;;;8.00;99.90;;;;;;4951844;28;20483;-53
2022/03/26 06:57:15;;;;;;;57.00;38.57;;;8.20;99.90;;;;;;4956155;28;20505;-51
2022/03/26 06:59:42;;;;;;;68.83;37.43;;;8.30;99.90;;;;;;4952278;28;20508;-54
2022/03/26 07:02:09;;;;;;;63.20;39.07;;;8.40;99.90;;;;;;4945971;28;20938;-53
2022/03/26 07:04:35;;;;;;;59.77;39.47;;;8.50;99.90;;;;;;4946881;28;20526;-53
2022/03/26 07:07:02;;;;;;;63.03;39.43;;;8.60;99.90;;;;;;4951663;28;20517;-53
2022/03/26 07:09:28;;;;;;;61.40;40.70;;;8.60;99.90;;;;;;4950476;28;20459;-52
2022/03/26 07:11:56;;;;;;;54.57;38.33;;;8.80;99.90;;;;;;4948737;28;20537;-52
2022/03/26 07:14:23;;;;;;;55.30;38.60;;;8.80;99.90;;;;;;4953475;28;20876;-52
2022/03/26 07:16:49;;;;;;;54.93;38.00;;;8.80;99.90;;;;;;4949735;28;20492;-52
2022/03/26 07:19:16;;;;;;;57.23;39.47;;;9.10;99.90;;;;;;4947757;28;20617;-53
2022/03/26 07:21:42;;;;;;;59.90;40.00;;;9.20;26.20;;;;;;4948116;28;20494;-52
2022/03/26 07:24:09;;;;;;;57.17;38.90;;;9.50;31.00;;;;;;4950656;28;20549;-52
2022/03/26 07:26:36;;;;;;;53.80;38.00;;;9.50;42.00;;;;;;4957571;28;20473;-54
2022/03/26 07:29:04;;;;;;;60.77;38.57;;;9.90;45.60;;;;;;4951699;28;20474;-52
2022/03/26 07:31:30;;;;;;;52.70;35.50;;;10.00;53.30;;;;;;4949915;28;20496;-53
2022/03/26 07:36:33;;;;;;;69.43;38.57;;;10.40;63.20;;;;;;4953629;28;20673;-55
2022/03/26 07:39:00;;;;;;;53.53;35.97;;;10.90;71.50;;;;;;4963718;28;20486;-54
2022/03/26 07:41:27;;;;;;;62.17;38.10;;;10.80;75.20;;;;;;4970095;28;20524;-52
2022/03/26 07:43:53;;;;;;;55.73;38.80;;;11.00;78.90;;;;;;4968269;28;20557;-52
2022/03/26 07:46:21;;;;;;;61.17;36.70;;;11.30;83.00;;;;;;4950148;28;20573;-54
2022/03/26 07:48:49;;;;;;;48.03;34.57;;;11.50;87.40;;;;;;4955328;28;20498;-55
2022/03/26 07:51:15;;;;;;;55.87;35.90;;;11.80;99.90;;;;;;4961161;28;20878;-54
2022/03/26 07:53:42;;;;;;;56.67;34.43;;;11.90;99.90;;;;;;4955782;28;20995;-55
2022/03/26 07:56:09;;;;;;;52.00;34.17;;;11.80;97.30;;;;;;4948259;28;20513;-56
2022/03/26 07:58:35;;;;;;;54.47;35.70;;;12.10;99.90;;;;;;4948368;28;20891;-54
2022/03/26 08:01:02;;;;;;;53.50;39.57;;;12.50;99.90;;;;;;4948294;28;20518;-54
2022/03/26 08:03:30;;;;;;;50.00;33.40;;;12.80;99.90;;;;;;4955735;28;20833;-54
2022/03/26 08:05:57;;;;;;;52.30;35.20;;;12.90;99.90;;;;;;4952617;28;20481;-51
2022/03/26 08:08:23;;;;;;;47.30;32.43;;;13.10;99.90;;;;;;4963080;28;20893;-51
2022/03/26 08:10:50;;;;;;;42.97;30.67;;;12.90;99.90;;;;;;4955099;28;20505;-51
2022/03/26 08:13:17;;;;;;;44.47;32.33;;;12.60;99.90;;;;;;4957908;28;20508;-51
2022/03/26 08:15:44;;;;;;;47.33;33.00;;;12.70;99.90;;;;;;4950592;28;20485;-51
2022/03/26 08:18:10;;;;;;;43.13;30.93;;;12.80;99.90;;;;;;4954515;28;20572;-51
2022/03/26 08:20:38;;;;;;;45.17;29.93;;;12.50;99.90;;;;;;4953395;28;20833;-51
2022/03/26 08:23:05;;;;;;;43.70;29.03;;;12.60;99.90;;;;;;4967938;28;20476;-51
2022/03/26 08:28:30;;;;;;;42.10;29.10;;;12.30;99.90;;;;;;4872718;29;20431;-50
2022/03/26 08:30:57;;;;;;;46.60;29.57;;;12.30;99.90;;;;;;4877808;29;20545;-51
2022/03/26 08:33:23;;;;;;;40.83;28.20;;;12.30;99.90;;;;;;4907067;29;20494;-50
2022/03/26 08:35:51;;;;;;;44.60;28.57;;;12.00;99.90;;;;;;4955903;29;20551;-51
2022/03/26 08:38:18;;;;;;;44.33;29.50;;;12.10;99.90;;;;;;4954674;28;20572;-51
2022/03/26 08:40:44;;;;;;;50.70;28.60;;;12.30;99.30;;;;;;4954597;28;20504;-51
2022/03/26 08:43:12;;;;;;;36.77;27.53;;;12.40;99.90;;;;;;4956803;28;20483;-52
2022/03/26 08:45:40;;;;;;;43.10;27.70;;;12.30;99.90;;;;;;4960306;28;20504;-51
2022/03/26 08:48:07;;;;;;;39.20;26.93;;;12.60;99.90;;;;;;4952415;28;20538;-51
2022/03/26 08:50:34;;;;;;;37.10;26.30;;;12.80;99.90;;;;;;4955705;28;20509;-51
2022/03/26 08:53:02;;;;;;;38.87;25.77;;;12.90;99.90;;;;;;4958483;28;20494;-51
2022/03/26 08:55:28;;;;;;;46.70;28.53;;;12.70;99.90;;;;;;4954955;28;20510;-51
2022/03/26 08:57:57;;;;;;;44.53;27.53;;;12.80;99.90;;;;;;4952252;28;20474;-52
2022/03/26 09:00:24;;;;;;;41.73;27.03;;;12.80;99.90;;;;;;4953720;28;20466;-52
2022/03/26 09:02:51;;;;;;;41.30;25.57;;;12.70;99.90;;;;;;4957245;28;20466;-51
2022/03/26 09:05:17;;;;;;;44.60;27.83;;;12.50;99.90;;;;;;4953504;28;20521;-51
2022/03/26 09:07:44;;;;;;;37.57;25.20;;;12.50;99.90;;;;;;4953021;28;20557;-51
2022/03/26 09:10:12;;;;;;;37.30;27.27;;;12.20;99.90;;;;;;4954846;28;20653;-51
2022/03/26 09:12:39;;;;;;;39.90;25.57;;;12.20;95.10;;;;;;4947807;28;20984;-50
2022/03/26 09:15:07;;;;;;;38.33;26.03;;;12.20;94.50;;;;;;4958687;28;20520;-50
2022/03/26 09:17:34;;;;;;;34.37;25.93;;;12.30;95.70;;;;;;4951206;28;20462;-50
2022/03/26 09:20:00;;;;;;;37.67;26.10;;;12.10;91.60;;;;;;4950022;28;20500;-51
2022/03/26 09:22:27;;;;;;;32.17;25.10;;;12.00;91.80;;;;;;4956079;28;20502;-51
2022/03/26 09:24:53;;;;;;;33.93;23.63;;;12.20;90.10;;;;;;4952931;28;20514;-51
2022/03/26 09:27:21;;;;;;;40.13;25.80;;;12.20;87.20;;;;;;4952547;28;21002;-51
2022/03/26 09:29:48;;;;;;;38.73;25.20;;;12.20;88.30;;;;;;4954223;28;20544;-51
2022/03/26 09:32:14;;;;;;;37.87;26.00;;;12.00;86.20;;;;;;4951353;28;20461;-50
2022/03/26 09:34:41;;;;;;;36.70;25.57;;;12.20;87.40;;;;;;4953328;28;20560;-51
2022/03/26 09:37:08;;;;;;;41.17;25.27;;;12.40;86.10;;;;;;4957180;28;20498;-54
2022/03/26 09:39:36;;;;;;;34.53;24.73;;;12.50;90.80;;;;;;4957338;28;20509;-54
2022/03/26 09:42:05;;;;;;;39.20;26.37;;;12.60;91.30;;;;;;4955739;28;20473;-54
2022/03/26 09:44:33;;;;;;;38.73;26.00;;;12.60;91.40;;;;;;4953243;28;20486;-54
2022/03/26 09:47:00;;;;;;;39.43;26.63;;;12.50;89.40;;;;;;4952543;28;20523;-54
2022/03/26 09:49:27;;;;;;;46.80;26.83;;;12.60;90.30;;;;;;4952471;28;20503;-52
2022/03/26 09:51:54;;;;;;;38.50;26.60;;;12.70;94.40;;;;;;4956687;28;21054;-50
2022/03/26 09:54:22;;;;;;;34.47;26.40;;;12.60;94.60;;;;;;4955553;28;20472;-50
2022/03/26 09:56:49;;;;;;;39.60;27.33;;;12.90;91.50;;;;;;4950914;29;20454;-50
2022/03/26 09:59:20;;;;;;;36.53;25.40;;;13.10;94.20;;;;;;4957317;28;20482;-50
2022/03/26 10:01:47;;;;;;;40.87;27.33;;;13.00;94.70;;;;;;4962485;28;20817;-51
2022/03/26 10:04:15;;;;;;;36.30;26.70;;;12.90;94.90;;;;;;4960634;28;20545;-49
2022/03/26 10:06:48;;;;;;;48.10;28.00;;;12.90;93.10;;;;;;4958822;28;20489;-50
2022/03/26 10:09:25;;;;;;;41.57;28.07;;;12.90;91.80;;;;;;4959085;28;20447;-49
2022/03/26 10:11:59;;;;;;;40.10;28.33;;;12.80;90.10;;;;;;4951420;28;20454;-49
2022/03/26 10:14:36;;;;;;;35.70;27.03;;;12.80;89.40;;;;;;4950841;28;20518;-50
2022/03/26 10:17:14;;;;;;;42.70;26.77;;;13.00;89.60;;;;;;4950210;28;20493;-50
2022/03/26 10:19:43;;;;;;;38.40;25.77;;;13.10;89.70;;;;;;4946538;28;21038;-49
2022/03/26 10:22:23;;;;;;;36.20;25.70;;;12.90;88.90;;;;;;4953693;28;21019;-50
2022/03/26 10:24:50;;;;;;;37.63;26.20;;;12.80;85.30;;;;;;4946905;28;20470;-49
2022/03/26 10:27:17;;;;;;;43.60;26.43;;;12.80;82.10;;;;;;4949926;28;20648;-49
2022/03/26 10:29:51;;;;;;;44.13;26.73;;;12.90;81.80;;;;;;4961668;28;20479;-50
2022/03/26 10:32:39;;;;;;;38.37;27.90;;;12.80;78.60;;;;;;4953672;28;20482;-49
2022/03/26 10:35:13;;;;;;;44.40;28.87;;;12.60;75.70;;;;;;4940289;29;20837;-50
2022/03/26 10:37:48;;;;;;;44.63;28.20;;;12.40;70.40;;;;;;4955079;28;20494;-49
2022/03/26 10:40:20;;;;;;;40.80;27.87;;;12.40;67.00;;;;;;4947210;28;20513;-49
2022/03/26 10:42:53;;;;;;;36.17;26.40;;;12.30;64.30;;;;;;4953922;28;20496;-50
2022/03/26 10:45:19;;;;;;;37.80;26.03;;;12.50;61.90;;;;;;4948519;28;20869;-49
2022/03/26 10:47:50;;;;;;;39.47;26.33;;;12.50;57.10;;;;;;4956317;28;20462;-50
2022/03/26 10:50:17;;;;;;;37.20;25.00;;;12.60;59.10;;;;;;4949398;28;20466;-49
2022/03/26 10:52:43;;;;;;;38.10;25.90;;;12.50;52.10;;;;;;4954272;28;20514;-49
2022/03/26 10:55:15;;;;;;;41.37;26.43;;;12.50;48.20;;;;;;4956358;28;20526;-49
2022/03/26 10:57:44;;;;;;;39.53;25.07;;;12.50;51.40;;;;;;4951850;28;20548;-48
2022/03/26 11:00:13;;;;;;;38.00;25.80;;;12.30;50.70;;;;;;4957220;28;20987;-49
2022/03/26 11:02:41;;;;;;;36.27;25.57;;;12.40;47.90;;;;;;4949871;28;20458;-49
2022/03/26 11:05:10;;;;;;;44.20;28.27;;;12.40;47.40;;;;;;4949529;28;20490;-50
2022/03/26 11:07:39;;;;;;;40.90;28.73;;;12.40;48.20;;;;;;4951691;28;21023;-50
2022/03/26 11:10:08;;;;;;;40.67;27.20;;;12.40;47.20;;;;;;4944830;28;20531;-50
2022/03/26 11:12:35;;;;;;;40.80;27.67;;;12.40;47.50;;;;;;4951541;28;20499;-50
2022/03/26 11:15:04;;;;;;;42.93;28.77;;;12.50;47.80;;;;;;4954977;28;21038;-49
2022/03/26 11:17:41;;;;;;;47.13;29.67;;;12.60;49.90;;;;;;4943905;28;20546;-49
2022/03/26 11:20:28;;;;;;;44.83;30.40;;;12.70;53.50;;;;;;4948440;28;21060;-49
2022/03/26 11:23:10;;;;;;;43.40;29.53;;;12.70;56.10;;;;;;4948743;28;20911;-49
2022/03/26 11:25:49;;;;;;;47.30;29.53;;;12.30;55.80;;;;;;4947324;28;20522;-53
2022/03/26 11:28:42;;;;;;;41.17;31.40;;;12.40;52.40;;;;;;4950768;28;21068;-49
2022/03/26 11:31:13;;;;;;;42.17;30.10;;;12.50;49.90;;;;;;4948680;28;20832;-50
2022/03/26 11:33:40;;;;;;;51.07;31.30;;;12.50;52.20;;;;;;4956950;28;20486;-49
2022/03/26 11:36:08;;;;;;;46.43;30.63;;;12.50;52.30;;;;;;4960337;28;20575;-51
2022/03/26 11:38:35;;;;;;;42.90;29.87;;;12.40;50.50;;;;;;4945706;28;20461;-52
2022/03/26 11:41:03;;;;;;;44.93;30.10;;;12.40;46.60;;;;;;4945852;28;20528;-51
2022/03/26 11:43:55;;;;;;;39.63;28.23;;;12.40;45.30;;;;;;4950531;28;20466;-51
2022/03/26 11:52:25;;;;;;;34.90;24.20;;;12.20;38.80;;;;;;4960539;28;20448;-50
2022/03/26 11:54:59;;;;;;;33.40;23.57;;;12.20;33.40;;;;;;4953090;28;20536;-50
2022/03/26 11:57:26;;;;;;;29.73;21.77;;;12.10;29.90;;;;;;4955141;28;20501;-51
2022/03/26 11:59:54;;;;;;;34.00;24.00;;;12.00;28.20;;;;;;4953293;28;20517;-52
2022/03/26 12:02:23;;;;;;;32.60;21.37;;;12.20;27.80;;;;;;4950044;28;20466;-52
2022/03/26 12:04:52;;;;;;;34.13;19.80;;;12.20;21.30;;;;;;4960745;28;20576;-51
2022/03/26 12:07:20;;;;;;;20.97;16.53;;;12.10;24.90;;;;;;4952070;28;20502;-53
2022/03/26 12:09:52;;;;;;;26.83;18.10;;;12.00;26.60;;;;;;4950911;28;20450;-51
2022/03/26 12:12:20;;;;;;;24.30;18.47;;;11.80;82.00;;;;;;4950275;28;20457;-51
2022/03/26 12:15:22;;;;;;;22.50;17.27;;;11.80;84.00;;;;;;4957942;28;20992;-51
2022/03/26 12:17:49;;;;;;;21.47;15.70;;;11.90;94.60;;;;;;4953792;28;20493;-50
2022/03/26 12:20:24;;;;;;;23.60;15.20;;;11.90;99.90;;;;;;4956420;28;20517;-51
2022/03/26 12:22:53;;;;;;;23.33;17.50;;;11.70;99.90;;;;;;4957993;28;20461;-51
2022/03/26 12:25:38;;;;;;;22.10;15.43;;;11.70;99.90;;;;;;4949687;28;20493;-51
2022/03/26 12:28:05;;;;;;;21.73;16.10;;;11.60;99.90;;;;;;4955793;28;20462;-51
2022/03/26 12:30:32;;;;;;;20.97;16.57;;;11.60;99.90;;;;;;4952028;28;20463;-51
2022/03/26 12:33:00;;;;;;;30.97;17.80;;;11.50;99.90;;;;;;4953879;28;20498;-51
2022/03/26 12:35:28;;;;;;;24.60;16.93;;;11.50;99.90;;;;;;4954640;28;20493;-51
2022/03/26 12:37:55;;;;;;;23.10;16.20;;;11.40;99.90;;;;;;4958672;28;20474;-50
2022/03/26 12:40:22;;;;;;;30.13;19.70;;;11.40;99.90;;;;;;4962924;28;20524;-51
2022/03/26 12:42:54;;;;;;;27.50;17.03;;;11.40;99.90;;;;;;4960893;28;20470;-51
2022/03/26 12:45:22;;;;;;;19.57;13.87;;;11.30;99.90;;;;;;4954788;28;20496;-51
2022/03/26 12:47:49;;;;;;;16.30;12.53;;;11.30;99.90;;;;;;4948583;28;20475;-51